Time;durP1;ratioP1;P1;durP2;ratioP2;P2;SDS_P1;SDS_P2;PMS_P1;PMS_P2;Temp;Humidity;BMP_temperature;BMP_pressure;BME280_temperature;BME280_humidity;BME280_pressure;Samples;Min_cycle;Max_cycle;Signal;HPM_P1;HPM_P2
2022/09/01 00:00:08;;;;;;;2.53;1.33;;;;;;;;;;5094848;28;20463;-70
2022/09/01 00:02:43;;;;;;;3.40;1.50;;;;;;;;;;5095503;28;20469;-70
2022/09/01 00:05:15;;;;;;;3.23;1.40;;;;;;;;;;5094342;28;20771;-70
2022/09/01 00:07:42;;;;;;;2.37;1.30;;;;;;;;;;5095094;28;21011;-70
2022/09/01 00:10:09;;;;;;;2.80;1.50;;;;;;;;;;5094769;28;20479;-70
2022/09/01 00:12:37;;;;;;;2.40;1.10;;;;;;;;;;5095174;28;20451;-70
2022/09/01 00:15:05;;;;;;;2.40;1.10;;;;;;;;;;5095471;28;20949;-70
2022/09/01 00:17:32;;;;;;;2.27;1.20;;;;;;;;;;5094742;28;20873;-70
2022/09/01 00:19:59;;;;;;;2.17;0.80;;;;;;;;;;5095053;28;20892;-70
2022/09/01 00:22:28;;;;;;;4.07;0.83;;;;;;;;;;5094066;28;20562;-69
2022/09/01 00:24:55;;;;;;;4.53;1.17;;;;;;;;;;5094567;28;20530;-70
2022/09/01 00:27:22;;;;;;;2.10;0.90;;;;;;;;;;5095021;28;20458;-71
2022/09/01 00:29:49;;;;;;;1.87;1.00;;;;;;;;;;5094542;28;20674;-71
2022/09/01 00:32:16;;;;;;;2.50;0.83;;;;;;;;;;5095056;28;20475;-70
2022/09/01 00:34:43;;;;;;;1.90;0.93;;;;;;;;;;5094878;28;20945;-70
2022/09/01 00:37:10;;;;;;;1.97;1.00;;;;;;;;;;5094285;28;20448;-70
2022/09/01 00:39:38;;;;;;;2.60;0.80;;;;;;;;;;5095030;28;20448;-70
2022/09/01 00:42:05;;;;;;;3.73;1.07;;;;;;;;;;5094416;28;21105;-71
2022/09/01 00:44:35;;;;;;;3.70;1.00;;;;;;;;;;5094742;28;20487;-70
2022/09/01 00:47:05;;;;;;;2.10;0.90;;;;;;;;;;5093922;28;20458;-70
2022/09/01 00:49:34;;;;;;;1.73;0.80;;;;;;;;;;5093805;28;20575;-70
2022/09/01 00:52:02;;;;;;;1.80;0.80;;;;;;;;;;5092382;28;20799;-70
2022/09/01 00:54:34;;;;;;;1.90;0.83;;;;;;;;;;5092620;28;20448;-70
2022/09/01 00:57:02;;;;;;;1.80;0.77;;;;;;;;;;5093505;28;20474;-70
2022/09/01 00:59:30;;;;;;;4.77;1.23;;;;;;;;;;5092163;28;20451;-70
2022/09/01 01:01:58;;;;;;;2.40;1.13;;;;;;;;;;5092997;28;20447;-70
2022/09/01 01:04:25;;;;;;;3.90;0.87;;;;;;;;;;5093478;28;20870;-70
2022/09/01 01:06:57;;;;;;;2.10;0.90;;;;;;;;;;5093229;28;20452;-70
2022/09/01 01:09:25;;;;;;;1.90;0.80;;;;;;;;;;5093261;28;20557;-70
2022/09/01 01:11:52;;;;;;;3.70;0.80;;;;;;;;;;5093030;28;20443;-70
2022/09/01 01:14:20;;;;;;;1.77;0.97;;;;;;;;;;5093294;28;20482;-70
2022/09/01 01:16:49;;;;;;;2.43;0.90;;;;;;;;;;5093240;28;20448;-70
2022/09/01 01:24:48;;;;;;;2.17;1.07;;;;;;;;;;5093258;28;20446;-70
2022/09/01 01:27:20;;;;;;;2.33;1.03;;;;;;;;;;5091833;28;20506;-70
2022/09/01 01:29:51;;;;;;;2.93;1.10;;;;;;;;;;5092956;28;20902;-70
2022/09/01 01:32:17;;;;;;;2.03;0.87;;;;;;;;;;5091582;28;20748;-71
2022/09/01 01:34:45;;;;;;;1.80;0.80;;;;;;;;;;5094604;28;20454;-71
2022/09/01 01:37:13;;;;;;;2.90;1.03;;;;;;;;;;5097424;28;20455;-70
2022/09/01 01:39:43;;;;;;;2.27;1.10;;;;;;;;;;5096379;28;20462;-70
2022/09/01 01:42:14;;;;;;;1.77;1.10;;;;;;;;;;5097493;28;20789;-70
2022/09/01 01:44:41;;;;;;;2.20;0.90;;;;;;;;;;5096450;28;20439;-70
2022/09/01 01:47:11;;;;;;;1.80;0.80;;;;;;;;;;5096869;28;20526;-70
2022/09/01 01:49:39;;;;;;;2.70;0.90;;;;;;;;;;5096431;28;20479;-70
2022/09/01 01:52:06;;;;;;;2.13;0.93;;;;;;;;;;5098061;28;20595;-70
2022/09/01 01:54:36;;;;;;;2.00;0.97;;;;;;;;;;5097233;28;20726;-69
2022/09/01 01:57:03;;;;;;;2.00;1.10;;;;;;;;;;5097472;28;20471;-70
2022/09/01 01:59:32;;;;;;;2.03;1.13;;;;;;;;;;5097331;28;20527;-69
2022/09/01 02:02:02;;;;;;;2.40;1.17;;;;;;;;;;5097551;28;20451;-70
2022/09/01 02:04:32;;;;;;;3.03;1.30;;;;;;;;;;5098039;28;20453;-70
2022/09/01 02:07:00;;;;;;;3.73;0.87;;;;;;;;;;5096768;28;20455;-70
2022/09/01 02:09:27;;;;;;;2.23;1.10;;;;;;;;;;5097317;28;20566;-70
2022/09/01 02:11:57;;;;;;;2.37;0.90;;;;;;;;;;5097131;28;20482;-70
2022/09/01 02:14:24;;;;;;;2.37;1.10;;;;;;;;;;5096471;28;20900;-70
2022/09/01 02:16:54;;;;;;;2.30;0.80;;;;;;;;;;5095716;28;20790;-70
2022/09/01 02:19:21;;;;;;;2.50;1.23;;;;;;;;;;5095918;28;20462;-70
2022/09/01 02:21:54;;;;;;;1.90;0.90;;;;;;;;;;5098024;28;20455;-70
2022/09/01 02:24:23;;;;;;;1.83;1.03;;;;;;;;;;5097610;28;20447;-70
2022/09/01 02:26:50;;;;;;;5.97;1.50;;;;;;;;;;5097237;28;20856;-70
2022/09/01 02:29:20;;;;;;;4.60;1.23;;;;;;;;;;5096971;28;20626;-70
2022/09/01 02:31:49;;;;;;;2.80;1.33;;;;;;;;;;5096900;28;20808;-70
2022/09/01 02:34:18;;;;;;;2.20;1.10;;;;;;;;;;5097347;28;20797;-70
2022/09/01 02:36:47;;;;;;;2.03;1.03;;;;;;;;;;5095798;28;20528;-70
2022/09/01 02:39:15;;;;;;;1.83;1.07;;;;;;;;;;5095409;28;20517;-70
2022/09/01 02:41:42;;;;;;;2.30;1.10;;;;;;;;;;5095475;28;20702;-70
2022/09/01 02:44:11;;;;;;;1.90;0.90;;;;;;;;;;5096164;28;20452;-70
2022/09/01 02:46:40;;;;;;;2.17;0.97;;;;;;;;;;5094715;28;20455;-70
2022/09/01 02:49:14;;;;;;;2.90;1.20;;;;;;;;;;5094977;28;20495;-70
2022/09/01 02:51:42;;;;;;;1.40;0.70;;;;;;;;;;5095031;28;20723;-70
2022/09/01 02:54:09;;;;;;;5.90;1.50;;;;;;;;;;5096008;28;20460;-70
2022/09/01 02:56:36;;;;;;;1.70;0.83;;;;;;;;;;5095853;28;20466;-70
2022/09/01 02:59:04;;;;;;;2.70;1.10;;;;;;;;;;5095994;28;20561;-70
2022/09/01 03:01:32;;;;;;;2.53;1.10;;;;;;;;;;5095062;28;20456;-70
2022/09/01 03:04:02;;;;;;;2.60;1.20;;;;;;;;;;5095161;28;20524;-70
2022/09/01 03:06:35;;;;;;;2.83;1.10;;;;;;;;;;5094118;28;20452;-70
2022/09/01 03:09:14;;;;;;;;;;;;;;;;;;;;;
2022/09/01 03:11:43;;;;;;;2.00;1.20;;;;;;;;;;5096058;28;20943;-70
2022/09/01 03:14:11;;;;;;;3.00;1.13;;;;;;;;;;5096574;28;20467;-70
2022/09/01 03:16:38;;;;;;;1.77;1.00;;;;;;;;;;5094829;28;20458;-70
2022/09/01 03:19:07;;;;;;;2.03;0.80;;;;;;;;;;5093999;28;20866;-70
2022/09/01 03:21:34;;;;;;;2.97;1.40;;;;;;;;;;5095292;28;20451;-70
2022/09/01 03:24:03;;;;;;;2.60;1.27;;;;;;;;;;5078466;28;20449;-70
2022/09/01 03:26:30;;;;;;;3.13;1.10;;;;;;;;;;5084774;28;20547;-70
2022/09/01 03:28:57;;;;;;;2.70;1.70;;;;;;;;;;5074950;28;20461;-70
2022/09/01 03:31:26;;;;;;;1.90;1.10;;;;;;;;;;5075301;28;20530;-70
2022/09/01 03:33:55;;;;;;;2.40;1.07;;;;;;;;;;5083545;28;20459;-70
2022/09/01 03:36:26;;;;;;;3.07;1.47;;;;;;;;;;5095507;28;20535;-70
2022/09/01 03:38:54;;;;;;;2.73;1.43;;;;;;;;;;5095701;28;20801;-70
2022/09/01 03:41:24;;;;;;;4.83;1.23;;;;;;;;;;5094896;28;21114;-70
2022/09/01 03:43:53;;;;;;;2.97;1.33;;;;;;;;;;5095978;28;20881;-69
2022/09/01 03:46:23;;;;;;;2.27;1.30;;;;;;;;;;5094656;28;20550;-70
2022/09/01 03:48:51;;;;;;;2.00;1.07;;;;;;;;;;5095409;28;20446;-70
2022/09/01 03:51:19;;;;;;;1.90;1.00;;;;;;;;;;5095885;28;20454;-70
2022/09/01 03:53:47;;;;;;;4.10;1.10;;;;;;;;;;5094681;28;20452;-70
2022/09/01 03:56:14;;;;;;;3.57;1.40;;;;;;;;;;5096285;28;20578;-70
2022/09/01 03:58:45;;;;;;;3.53;1.30;;;;;;;;;;5094767;28;20727;-70
2022/09/01 04:01:13;;;;;;;3.60;1.50;;;;;;;;;;5094676;28;20458;-70
2022/09/01 04:03:41;;;;;;;8.53;1.30;;;;;;;;;;5095048;28;20501;-71
2022/09/01 04:06:08;;;;;;;2.77;1.50;;;;;;;;;;5095436;28;20939;-70
2022/09/01 04:08:36;;;;;;;2.83;1.77;;;;;;;;;;5095476;28;20535;-70
2022/09/01 04:11:04;;;;;;;2.10;1.23;;;;;;;;;;5087167;28;20496;-70
2022/09/01 04:13:32;;;;;;;2.47;1.37;;;;;;;;;;5089535;28;20542;-70
2022/09/01 04:16:00;;;;;;;3.57;1.40;;;;;;;;;;5094596;28;20455;-70
2022/09/01 04:18:28;;;;;;;1.73;1.00;;;;;;;;;;5094101;28;20455;-70
2022/09/01 04:20:56;;;;;;;3.50;1.23;;;;;;;;;;5094476;28;20468;-70
2022/09/01 04:23:25;;;;;;;2.70;1.47;;;;;;;;;;5095055;28;20474;-70
2022/09/01 04:25:54;;;;;;;2.77;1.30;;;;;;;;;;5092177;28;20455;-70
2022/09/01 04:28:24;;;;;;;2.30;1.63;;;;;;;;;;5093606;28;20459;-70
2022/09/01 04:30:54;;;;;;;2.10;1.30;;;;;;;;;;5093673;28;21115;-70
2022/09/01 04:33:23;;;;;;;2.90;1.57;;;;;;;;;;5093744;28;20455;-70
2022/09/01 04:35:51;;;;;;;2.07;0.90;;;;;;;;;;5094316;28;20530;-70
2022/09/01 04:38:18;;;;;;;3.27;1.70;;;;;;;;;;5094081;28;20463;-70
2022/09/01 04:40:48;;;;;;;2.70;1.40;;;;;;;;;;5094253;28;20455;-70
2022/09/01 04:43:16;;;;;;;6.70;1.60;;;;;;;;;;5092714;28;20483;-72
2022/09/01 04:45:50;;;;;;;2.67;1.50;;;;;;;;;;5092752;28;20505;-72
2022/09/01 04:48:20;;;;;;;3.73;1.27;;;;;;;;;;5093094;28;20885;-72
2022/09/01 04:50:50;;;;;;;4.37;1.63;;;;;;;;;;5092997;28;20513;-72
2022/09/01 04:53:26;;;;;;;4.13;1.70;;;;;;;;;;5092061;28;20459;-72
2022/09/01 04:55:56;;;;;;;22.27;5.30;;;;;;;;;;5092049;28;20447;-72
2022/09/01 04:58:23;;;;;;;3.80;2.17;;;;;;;;;;5092376;28;20561;-72
2022/09/01 05:00:51;;;;;;;2.97;1.50;;;;;;;;;;5091450;28;20546;-70
2022/09/01 05:03:22;;;;;;;2.40;1.50;;;;;;;;;;5092179;28;20447;-72
2022/09/01 05:06:01;;;;;;;3.40;1.77;;;;;;;;;;5091237;28;20967;-72
2022/09/01 05:08:34;;;;;;;3.13;2.33;;;;;;;;;;5091195;28;20885;-72
2022/09/01 05:11:06;;;;;;;24.33;3.10;;;;;;;;;;5089782;28;20591;-72
2022/09/01 05:13:34;;;;;;;4.50;2.30;;;;;;;;;;5089914;28;20809;-72
2022/09/01 05:16:02;;;;;;;9.37;2.60;;;;;;;;;;5090507;28;20512;-72
2022/09/01 05:18:29;;;;;;;4.17;2.03;;;;;;;;;;5090317;28;20459;-72
2022/09/01 05:20:57;;;;;;;6.80;2.30;;;;;;;;;;5091532;28;20671;-72
2022/09/01 05:23:31;;;;;;;3.30;2.07;;;;;;;;;;5090808;28;20474;-72
2022/09/01 05:26:02;;;;;;;5.47;3.00;;;;;;;;;;5088372;28;20902;-71
2022/09/01 05:28:29;;;;;;;7.17;2.50;;;;;;;;;;5090684;28;20451;-72
2022/09/01 05:30:56;;;;;;;11.00;3.47;;;;;;;;;;5073947;28;20527;-72
2022/09/01 05:33:33;;;;;;;3.67;2.10;;;;;;;;;;5071295;28;20811;-73
2022/09/01 05:36:14;;;;;;;5.10;2.40;;;;;;;;;;5078631;28;20451;-72
2022/09/01 05:38:44;;;;;;;8.00;2.37;;;;;;;;;;5083421;28;20451;-72
2022/09/01 05:41:14;;;;;;;11.00;2.27;;;;;;;;;;5082332;28;20440;-71
2022/09/01 05:43:45;;;;;;;5.90;3.17;;;;;;;;;;5072153;28;20471;-71
2022/09/01 05:46:16;;;;;;;6.77;3.10;;;;;;;;;;5069915;28;20513;-70
2022/09/01 05:48:43;;;;;;;7.40;2.40;;;;;;;;;;5088279;28;20536;-71
2022/09/01 05:51:18;;;;;;;4.60;2.20;;;;;;;;;;5087736;28;20479;-71
2022/09/01 05:53:50;;;;;;;4.53;2.03;;;;;;;;;;5089494;28;20569;-71
2022/09/01 05:56:18;;;;;;;3.37;2.03;;;;;;;;;;5090304;28;20452;-71
2022/09/01 05:58:49;;;;;;;4.87;2.30;;;;;;;;;;5088425;28;21025;-72
2022/09/01 06:01:20;;;;;;;3.73;2.47;;;;;;;;;;5088413;28;20459;-71
2022/09/01 06:03:53;;;;;;;3.20;1.50;;;;;;;;;;5089893;28;20738;-71
2022/09/01 06:06:23;;;;;;;3.90;2.60;;;;;;;;;;5089185;28;20469;-72
2022/09/01 06:08:50;;;;;;;5.03;2.20;;;;;;;;;;5088156;28;20463;-71
2022/09/01 06:11:23;;;;;;;7.80;2.00;;;;;;;;;;5087975;28;20490;-71
2022/09/01 06:14:05;;;;;;;3.03;1.70;;;;;;;;;;5107697;28;20880;-72
2022/09/01 06:16:34;;;;;;;3.30;2.30;;;;;;;;;;5109964;28;20477;-71
2022/09/01 06:19:03;;;;;;;4.87;2.20;;;;;;;;;;5111143;28;20546;-71
2022/09/01 06:21:31;;;;;;;4.77;1.90;;;;;;;;;;5112508;28;20451;-71
2022/09/01 06:23:59;;;;;;;2.47;1.90;;;;;;;;;;5112958;28;20606;-71
2022/09/01 06:26:27;;;;;;;7.27;3.27;;;;;;;;;;5097253;28;20547;-71
2022/09/01 06:28:55;;;;;;;3.17;2.10;;;;;;;;;;5092150;28;20550;-71
2022/09/01 06:31:23;;;;;;;2.90;1.83;;;;;;;;;;5079642;28;20774;-71
2022/09/01 06:33:52;;;;;;;3.67;2.00;;;;;;;;;;5093601;28;20579;-71
2022/09/01 06:36:20;;;;;;;2.53;1.80;;;;;;;;;;5092928;28;20479;-71
2022/09/01 06:38:51;;;;;;;3.17;1.40;;;;;;;;;;5089894;28;20467;-71
2022/09/01 06:41:19;;;;;;;7.10;2.17;;;;;;;;;;5089911;28;20474;-70
2022/09/01 06:43:47;;;;;;;2.97;1.80;;;;;;;;;;5089099;28;20486;-70
2022/09/01 06:46:14;;;;;;;2.50;1.70;;;;;;;;;;5074335;28;21003;-71
2022/09/01 06:48:45;;;;;;;7.00;2.40;;;;;;;;;;5077472;28;20905;-70
2022/09/01 06:51:13;;;;;;;6.07;1.50;;;;;;;;;;5076454;28;20488;-70
2022/09/01 06:53:40;;;;;;;3.90;2.10;;;;;;;;;;5093558;28;20448;-70
2022/09/01 06:56:12;;;;;;;4.10;1.50;;;;;;;;;;5080805;28;20533;-71
2022/09/01 06:58:40;;;;;;;3.37;1.63;;;;;;;;;;5085785;28;20471;-72
2022/09/01 07:01:14;;;;;;;9.50;2.17;;;;;;;;;;5086214;28;20448;-71
2022/09/01 07:03:43;;;;;;;4.03;1.40;;;;;;;;;;5077084;28;20467;-72
2022/09/01 07:06:11;;;;;;;4.67;1.37;;;;;;;;;;5082762;28;20456;-71
2022/09/01 07:08:48;;;;;;;3.93;1.63;;;;;;;;;;5091126;28;20792;-71
2022/09/01 07:11:26;;;;;;;4.80;1.93;;;;;;;;;;5091047;28;20559;-72
2022/09/01 07:13:54;;;;;;;4.40;1.37;;;;;;;;;;5091051;28;20464;-72
2022/09/01 07:16:22;;;;;;;4.40;1.40;;;;;;;;;;5090616;28;20456;-73
2022/09/01 07:18:56;;;;;;;4.70;1.60;;;;;;;;;;5092058;28;21060;-72
2022/09/01 07:21:23;;;;;;;6.80;1.30;;;;;;;;;;5092913;28;20474;-72
2022/09/01 07:23:51;;;;;;;1.50;0.80;;;;;;;;;;5088087;28;20477;-72
2022/09/01 07:26:24;;;;;;;2.37;0.97;;;;;;;;;;5087687;28;20456;-73
2022/09/01 07:28:52;;;;;;;3.00;1.10;;;;;;;;;;5091815;28;20548;-73
2022/09/01 07:31:21;;;;;;;2.20;1.07;;;;;;;;;;5086884;28;20488;-73
2022/09/01 07:33:53;;;;;;;2.53;0.77;;;;;;;;;;5088279;28;20467;-73
2022/09/01 07:36:21;;;;;;;2.13;0.97;;;;;;;;;;5091330;28;20484;-72
2022/09/01 07:38:52;;;;;;;3.13;1.00;;;;;;;;;;5089882;28;20485;-73
2022/09/01 07:41:21;;;;;;;2.00;0.90;;;;;;;;;;5091503;28;20468;-72
2022/09/01 07:43:51;;;;;;;2.23;1.00;;;;;;;;;;5088347;28;20498;-72
2022/09/01 07:46:22;;;;;;;4.23;2.10;;;;;;;;;;5085815;28;20471;-72
2022/09/01 07:48:56;;;;;;;3.73;2.50;;;;;;;;;;5089705;28;20536;-73
2022/09/01 07:51:26;;;;;;;2.20;1.50;;;;;;;;;;5088819;28;20505;-72
2022/09/01 07:53:53;;;;;;;2.23;1.03;;;;;;;;;;5089046;28;20502;-72
2022/09/01 07:56:22;;;;;;;4.23;1.53;;;;;;;;;;5086120;28;20948;-72
2022/09/01 07:58:56;;;;;;;2.73;1.27;;;;;;;;;;5089037;28;20471;-72
2022/09/01 08:01:35;;;;;;;5.10;1.13;;;;;;;;;;5092744;28;20547;-71
2022/09/01 08:06:55;;;;;;;3.30;0.90;;;;;;;;;;5087608;28;20560;-72
2022/09/01 08:09:26;;;;;;;2.80;1.00;;;;;;;;;;5088069;28;20491;-70
2022/09/01 08:12:13;;;;;;;5.23;0.93;;;;;;;;;;5072168;28;20447;-70
2022/09/01 08:14:53;;;;;;;3.00;0.97;;;;;;;;;;5084853;28;20460;-70
2022/09/01 08:17:29;;;;;;;2.63;0.90;;;;;;;;;;5094065;28;20493;-70
2022/09/01 08:20:01;;;;;;;2.13;0.83;;;;;;;;;;5092539;28;20874;-69
2022/09/01 08:22:34;;;;;;;3.47;1.30;;;;;;;;;;5092756;28;20745;-70
2022/09/01 08:25:11;;;;;;;3.40;1.40;;;;;;;;;;5090980;28;20479;-71
2022/09/01 08:27:50;;;;;;;1.50;0.70;;;;;;;;;;5094602;28;20452;-71
2022/09/01 08:30:22;;;;;;;1.73;0.60;;;;;;;;;;5093056;28;20486;-71
2022/09/01 08:32:52;;;;;;;3.17;0.87;;;;;;;;;;5093025;27;20448;-70
2022/09/01 08:35:29;;;;;;;2.97;1.00;;;;;;;;;;5091852;27;20468;-71
2022/09/01 08:37:57;;;;;;;2.20;0.77;;;;;;;;;;5092731;28;20451;-71
2022/09/01 08:40:33;;;;;;;1.83;0.67;;;;;;;;;;5089234;28;20493;-71
2022/09/01 08:43:20;;;;;;;1.80;0.77;;;;;;;;;;5077842;28;20554;-71
2022/09/01 08:45:55;;;;;;;1.40;0.60;;;;;;;;;;5083241;28;20463;-71
2022/09/01 08:48:37;;;;;;;2.00;0.67;;;;;;;;;;5093226;28;20474;-71
2022/09/01 08:51:14;;;;;;;1.70;0.80;;;;;;;;;;5092772;28;21055;-70
2022/09/01 08:53:46;;;;;;;2.53;0.90;;;;;;;;;;5089417;28;20452;-72
2022/09/01 08:56:19;;;;;;;3.33;0.80;;;;;;;;;;5090520;28;20459;-70
2022/09/01 08:58:59;;;;;;;5.90;0.80;;;;;;;;;;5091676;28;20494;-70
2022/09/01 09:01:44;;;;;;;4.17;0.97;;;;;;;;;;5088590;28;20481;-71
2022/09/01 09:04:20;;;;;;;3.77;1.03;;;;;;;;;;5079135;28;20866;-70
2022/09/01 09:07:04;;;;;;;3.47;1.20;;;;;;;;;;5075868;28;20460;-70
2022/09/01 09:09:37;;;;;;;4.87;0.90;;;;;;;;;;5088329;28;20451;-71
2022/09/01 09:12:30;;;;;;;3.37;0.67;;;;;;;;;;5070567;28;20448;-72
2022/09/01 09:15:10;;;;;;;4.03;0.70;;;;;;;;;;5075961;28;20534;-71
2022/09/01 09:17:41;;;;;;;3.20;0.70;;;;;;;;;;5088072;28;20796;-73
2022/09/01 09:20:25;;;;;;;3.30;1.10;;;;;;;;;;5090701;27;20451;-72
2022/09/01 09:23:03;;;;;;;6.47;2.50;;;;;;;;;;5076832;28;20452;-74
2022/09/01 09:25:36;;;;;;;4.13;1.43;;;;;;;;;;5071869;28;20525;-73
2022/09/01 09:28:14;;;;;;;4.40;1.67;;;;;;;;;;5078114;28;20475;-72
2022/09/01 09:30:48;;;;;;;3.73;1.10;;;;;;;;;;5089451;28;20514;-73
2022/09/01 09:33:33;;;;;;;4.07;1.00;;;;;;;;;;5091452;28;20471;-73
2022/09/01 09:36:24;;;;;;;5.30;2.00;;;;;;;;;;5073249;28;20487;-73
2022/09/01 09:39:08;;;;;;;6.10;1.10;;;;;;;;;;5090746;28;20479;-74
2022/09/01 09:42:08;;;;;;;3.33;0.93;;;;;;;;;;5089400;28;20878;-73
2022/09/01 09:44:51;;;;;;;5.43;1.57;;;;;;;;;;5085679;28;20484;-72
2022/09/01 09:47:37;;;;;;;4.23;0.70;;;;;;;;;;5089938;28;20974;-73
2022/09/01 09:50:28;;;;;;;4.63;1.20;;;;;;;;;;5090618;28;21077;-73
2022/09/01 09:53:11;;;;;;;3.17;0.80;;;;;;;;;;5085183;28;20917;-73
2022/09/01 09:55:50;;;;;;;13.23;1.00;;;;;;;;;;5089636;28;20949;-72
2022/09/01 09:58:45;;;;;;;5.27;0.90;;;;;;;;;;5091691;28;20910;-73
2022/09/01 10:01:29;;;;;;;2.73;0.60;;;;;;;;;;5085701;28;20456;-72
2022/09/01 10:03:57;;;;;;;3.37;0.70;;;;;;;;;;5084977;28;20745;-72
2022/09/01 10:06:34;;;;;;;12.00;2.73;;;;;;;;;;5084995;28;20912;-72
2022/09/01 10:09:05;;;;;;;3.90;0.70;;;;;;;;;;5088781;28;20451;-72
2022/09/01 10:11:39;;;;;;;2.83;0.70;;;;;;;;;;5094608;28;20545;-73
2022/09/01 10:14:14;;;;;;;3.10;0.90;;;;;;;;;;5092210;28;20464;-74
2022/09/01 10:16:49;;;;;;;4.63;1.03;;;;;;;;;;5093405;28;20473;-73
2022/09/01 10:19:21;;;;;;;2.70;0.70;;;;;;;;;;5084160;28;20467;-73
2022/09/01 10:21:48;;;;;;;3.63;0.80;;;;;;;;;;5086388;28;20495;-71
2022/09/01 10:24:19;;;;;;;4.47;1.03;;;;;;;;;;5093103;28;20544;-73
2022/09/01 10:26:47;;;;;;;2.80;0.80;;;;;;;;;;5093427;28;20734;-72
2022/09/01 10:29:19;;;;;;;3.73;1.13;;;;;;;;;;5097825;28;20447;-71
2022/09/01 10:31:47;;;;;;;2.63;0.70;;;;;;;;;;5107832;28;20489;-72
2022/09/01 10:34:16;;;;;;;5.50;0.87;;;;;;;;;;5092104;28;20501;-71
2022/09/01 10:37:02;;;;;;;2.80;0.90;;;;;;;;;;5078312;28;20486;-72
2022/09/01 10:39:30;;;;;;;3.37;1.20;;;;;;;;;;5084264;28;20529;-71
2022/09/01 10:42:06;;;;;;;3.37;1.10;;;;;;;;;;5076225;28;20483;-71
2022/09/01 10:44:35;;;;;;;2.60;0.70;;;;;;;;;;5075387;28;20455;-71
2022/09/01 10:47:03;;;;;;;3.50;1.10;;;;;;;;;;5093674;28;20493;-71
2022/09/01 10:49:51;;;;;;;3.20;1.30;;;;;;;;;;5092402;28;20432;-71
2022/09/01 10:52:37;;;;;;;3.13;0.97;;;;;;;;;;5085323;28;20558;-71
2022/09/01 10:55:04;;;;;;;3.33;0.77;;;;;;;;;;5080452;28;20467;-70
2022/09/01 10:57:50;;;;;;;2.43;0.60;;;;;;;;;;5087064;28;21036;-72
2022/09/01 11:00:38;;;;;;;5.27;1.40;;;;;;;;;;5073244;28;20476;-73
2022/09/01 11:03:23;;;;;;;2.70;0.80;;;;;;;;;;5072679;28;20468;-72
2022/09/01 11:06:01;;;;;;;2.80;0.70;;;;;;;;;;5085700;28;20461;-72
2022/09/01 11:08:41;;;;;;;3.53;1.17;;;;;;;;;;5086293;28;20754;-72
2022/09/01 11:11:13;;;;;;;5.80;1.00;;;;;;;;;;5090924;28;20494;-72
2022/09/01 11:13:48;;;;;;;17.50;2.70;;;;;;;;;;5089482;28;20506;-73
2022/09/01 11:16:28;;;;;;;3.63;1.10;;;;;;;;;;5086325;28;20459;-73
2022/09/01 11:19:05;;;;;;;3.03;1.13;;;;;;;;;;5090345;28;20448;-73
2022/09/01 11:21:38;;;;;;;4.33;1.80;;;;;;;;;;5089353;28;20467;-73
2022/09/01 11:24:27;;;;;;;5.37;1.50;;;;;;;;;;5077559;28;20467;-72
2022/09/01 11:27:02;;;;;;;3.20;1.13;;;;;;;;;;5073519;28;20468;-73
2022/09/01 11:29:48;;;;;;;4.27;1.47;;;;;;;;;;5085180;28;20842;-72
2022/09/01 11:32:16;;;;;;;6.00;1.50;;;;;;;;;;5086369;28;20899;-73
2022/09/01 11:34:45;;;;;;;4.43;1.43;;;;;;;;;;5089746;28;20452;-72
2022/09/01 11:37:15;;;;;;;4.03;0.90;;;;;;;;;;5090923;28;20970;-72
2022/09/01 11:39:44;;;;;;;5.00;1.20;;;;;;;;;;5077552;28;20471;-71
2022/09/01 11:42:17;;;;;;;5.00;0.80;;;;;;;;;;5077484;28;20456;-72
2022/09/01 11:44:48;;;;;;;4.10;0.70;;;;;;;;;;5080459;28;20907;-72
2022/09/01 11:47:21;;;;;;;3.90;1.17;;;;;;;;;;5086186;28;20817;-71
2022/09/01 11:49:53;;;;;;;3.30;0.70;;;;;;;;;;5091539;28;20481;-72
2022/09/01 11:52:26;;;;;;;3.57;0.90;;;;;;;;;;5088633;28;20463;-73
2022/09/01 11:54:56;;;;;;;3.80;0.90;;;;;;;;;;5087980;28;20455;-72
2022/09/01 11:57:26;;;;;;;2.60;0.80;;;;;;;;;;5084369;28;20480;-72
2022/09/01 11:59:54;;;;;;;5.37;0.70;;;;;;;;;;5084012;28;20878;-72
2022/09/01 12:02:23;;;;;;;4.30;1.17;;;;;;;;;;5085425;28;20456;-72
2022/09/01 12:04:52;;;;;;;2.90;0.90;;;;;;;;;;5080683;27;20463;-73
2022/09/01 12:07:33;;;;;;;3.80;1.00;;;;;;;;;;5087824;28;20549;-73
2022/09/01 12:13:13;;;;;;;2.93;1.27;;;;;;;;;;5088821;28;20550;-72
2022/09/01 12:15:42;;;;;;;2.87;0.83;;;;;;;;;;5091314;28;20985;-72
2022/09/01 12:18:25;;;;;;;4.17;1.63;;;;;;;;;;5091896;28;20743;-73
2022/09/01 12:20:57;;;;;;;3.20;1.00;;;;;;;;;;5087623;28;20464;-73
2022/09/01 12:23:27;;;;;;;2.57;0.60;;;;;;;;;;5085874;28;20491;-73
2022/09/01 12:25:57;;;;;;;3.63;0.73;;;;;;;;;;5091017;28;20447;-73
2022/09/01 12:28:26;;;;;;;6.93;1.73;;;;;;;;;;5091529;28;20566;-73
2022/09/01 12:30:56;;;;;;;3.00;0.90;;;;;;;;;;5086217;28;20901;-74
2022/09/01 12:33:32;;;;;;;2.77;1.10;;;;;;;;;;5087633;28;20936;-73
2022/09/01 12:36:16;;;;;;;2.77;0.73;;;;;;;;;;5084341;28;20479;-73
2022/09/01 12:38:48;;;;;;;3.40;1.33;;;;;;;;;;5087143;28;20459;-73
2022/09/01 12:41:35;;;;;;;3.70;1.40;;;;;;;;;;5081639;28;20460;-73
2022/09/01 12:44:29;;;;;;;3.00;0.70;;;;;;;;;;5090730;28;20550;-72
2022/09/01 12:46:57;;;;;;;3.73;1.30;;;;;;;;;;5065225;28;20467;-72
2022/09/01 12:49:25;;;;;;;3.80;0.97;;;;;;;;;;5090420;28;20459;-72
2022/09/01 12:52:07;;;;;;;2.73;0.70;;;;;;;;;;5088939;28;20826;-72
2022/09/01 12:54:35;;;;;;;3.53;0.60;;;;;;;;;;5091877;28;20722;-72
2022/09/01 12:57:04;;;;;;;4.53;0.90;;;;;;;;;;5077266;28;20807;-74
2022/09/01 12:59:31;;;;;;;5.00;1.20;;;;;;;;;;5070969;28;20567;-73
2022/09/01 13:01:59;;;;;;;4.73;1.73;;;;;;;;;;5092693;28;20459;-74
2022/09/01 13:04:29;;;;;;;2.73;0.77;;;;;;;;;;5087999;28;20471;-73
2022/09/01 13:07:02;;;;;;;4.70;2.30;;;;;;;;;;5089240;28;20504;-75
2022/09/01 13:09:35;;;;;;;3.47;1.10;;;;;;;;;;5076912;28;20500;-74
2022/09/01 13:12:19;;;;;;;3.90;1.67;;;;;;;;;;5083809;28;20458;-74
2022/09/01 13:14:49;;;;;;;5.00;2.30;;;;;;;;;;5088486;28;20444;-75
2022/09/01 13:17:18;;;;;;;2.97;0.70;;;;;;;;;;5090256;28;20458;-74
2022/09/01 13:19:46;;;;;;;3.37;1.20;;;;;;;;;;5090571;28;20464;-75
2022/09/01 13:22:21;;;;;;;5.23;1.30;;;;;;;;;;5091569;28;20522;-75
2022/09/01 13:24:52;;;;;;;2.90;0.70;;;;;;;;;;5089557;28;20469;-74
2022/09/01 13:27:23;;;;;;;4.10;1.07;;;;;;;;;;5089928;28;20455;-73
2022/09/01 13:29:58;;;;;;;2.70;0.70;;;;;;;;;;5090115;28;20460;-74
2022/09/01 13:32:31;;;;;;;3.13;0.70;;;;;;;;;;5088110;28;20704;-73
2022/09/01 13:35:00;;;;;;;2.50;0.60;;;;;;;;;;5088977;28;20436;-74
2022/09/01 13:37:45;;;;;;;3.10;0.97;;;;;;;;;;5087952;28;20507;-75
2022/09/01 13:40:20;;;;;;;3.23;1.40;;;;;;;;;;5087164;28;20448;-73
2022/09/01 13:43:09;;;;;;;3.67;1.03;;;;;;;;;;5086031;28;20770;-70
2022/09/01 13:45:36;;;;;;;4.43;1.10;;;;;;;;;;5076401;28;20947;-71
2022/09/01 13:48:07;;;;;;;3.37;1.27;;;;;;;;;;5082640;28;20494;-72
2022/09/01 13:50:37;;;;;;;3.97;1.00;;;;;;;;;;5082751;28;20471;-71
2022/09/01 13:53:05;;;;;;;2.70;0.80;;;;;;;;;;5085156;28;20470;-71
2022/09/01 13:55:42;;;;;;;3.50;0.90;;;;;;;;;;5085669;28;20877;-71
2022/09/01 13:58:15;;;;;;;3.20;0.80;;;;;;;;;;5083722;28;20459;-72
2022/09/01 14:00:44;;;;;;;3.10;0.70;;;;;;;;;;5087606;28;20485;-71
2022/09/01 14:03:14;;;;;;;2.73;0.73;;;;;;;;;;5088862;28;20489;-71
2022/09/01 14:05:42;;;;;;;4.90;0.93;;;;;;;;;;5088309;28;20444;-71
2022/09/01 14:08:11;;;;;;;2.60;0.60;;;;;;;;;;5079465;28;20894;-72
2022/09/01 14:10:40;;;;;;;5.53;1.83;;;;;;;;;;5081531;28;20574;-71
2022/09/01 14:13:08;;;;;;;2.80;0.77;;;;;;;;;;5086470;28;20566;-73
2022/09/01 14:15:36;;;;;;;3.40;1.00;;;;;;;;;;5077824;28;20470;-72
2022/09/01 14:18:04;;;;;;;3.73;1.07;;;;;;;;;;5073677;28;20471;-71
2022/09/01 14:20:43;;;;;;;6.50;4.40;;;;;;;;;;5077610;28;20458;-71
2022/09/01 14:23:12;;;;;;;7.50;1.60;;;;;;;;;;5087904;28;20479;-71
2022/09/01 14:25:42;;;;;;;3.20;0.87;;;;;;;;;;5088247;28;20448;-72
2022/09/01 14:28:09;;;;;;;3.60;1.20;;;;;;;;;;5081376;28;20522;-72
2022/09/01 14:30:40;;;;;;;2.70;0.70;;;;;;;;;;5073014;28;20494;-72
2022/09/01 14:33:08;;;;;;;2.93;0.80;;;;;;;;;;5088452;28;20539;-71
2022/09/01 14:35:37;;;;;;;2.60;0.70;;;;;;;;;;5099531;28;20924;-72
2022/09/01 14:38:06;;;;;;;2.70;0.80;;;;;;;;;;5089795;28;20541;-71
2022/09/01 14:40:35;;;;;;;3.97;1.10;;;;;;;;;;5089086;27;20463;-72
2022/09/01 14:43:05;;;;;;;4.40;2.10;;;;;;;;;;5089565;28;20466;-71
2022/09/01 14:45:32;;;;;;;2.90;1.00;;;;;;;;;;5087955;28;20465;-71
2022/09/01 14:48:14;;;;;;;4.20;1.70;;;;;;;;;;5082047;28;20462;-71
2022/09/01 14:50:45;;;;;;;4.40;2.10;;;;;;;;;;5086992;28;20483;-72
2022/09/01 14:53:14;;;;;;;5.00;1.30;;;;;;;;;;5089199;28;21005;-72
2022/09/01 14:55:45;;;;;;;8.53;0.97;;;;;;;;;;5092009;28;20454;-71
2022/09/01 14:58:16;;;;;;;3.17;1.00;;;;;;;;;;5090275;28;20986;-72
2022/09/01 15:00:46;;;;;;;2.70;0.97;;;;;;;;;;5089353;28;20474;-71
2022/09/01 15:03:15;;;;;;;2.83;0.87;;;;;;;;;;5092359;28;20462;-71
2022/09/01 15:05:47;;;;;;;4.90;1.17;;;;;;;;;;5089968;27;20460;-72
2022/09/01 15:08:14;;;;;;;3.33;0.80;;;;;;;;;;5090972;28;20487;-72
2022/09/01 15:10:42;;;;;;;2.90;1.00;;;;;;;;;;5093038;28;20494;-72
2022/09/01 15:13:09;;;;;;;3.20;1.10;;;;;;;;;;5090871;28;20487;-72
2022/09/01 15:15:36;;;;;;;3.53;0.80;;;;;;;;;;5081932;28;20593;-72
2022/09/01 15:18:04;;;;;;;3.30;1.53;;;;;;;;;;5089163;28;20464;-72
2022/09/01 15:20:52;;;;;;;3.20;1.33;;;;;;;;;;5089923;27;20536;-72